createdAt,value
2017-11-06T00:01:26.706Z,15.53
2017-11-06T00:03:54.976Z,15.90
2017-11-06T00:06:23.259Z,16.77
2017-11-06T00:08:51.528Z,15.83
2017-11-06T00:11:19.814Z,15.10
2017-11-06T00:13:48.079Z,14.90
2017-11-06T00:16:16.368Z,14.37
2017-11-06T00:18:44.631Z,15.13
2017-11-06T00:21:12.967Z,15.07
2017-11-06T00:23:40.475Z,15.67
2017-11-06T00:26:08.745Z,16.10
2017-11-06T00:28:37.031Z,14.87
2017-11-06T00:31:05.300Z,15.40
2017-11-06T00:33:33.588Z,14.83
2017-11-06T00:36:01.086Z,15.67
2017-11-06T00:38:28.599Z,16.50
2017-11-06T00:40:56.872Z,15.77
2017-11-06T00:43:25.150Z,15.33
2017-11-06T00:45:53.416Z,17.07
2017-11-06T00:48:21.700Z,15.67
2017-11-06T00:50:49.967Z,15.77
2017-11-06T00:53:18.299Z,15.83
2017-11-06T00:55:45.795Z,15.50
2017-11-06T00:58:14.068Z,16.13
2017-11-06T01:00:41.589Z,15.73
2017-11-06T01:03:09.083Z,16.30
2017-11-06T01:05:36.598Z,16.73
2017-11-06T01:08:04.107Z,17.23
2017-11-06T01:10:32.383Z,16.37
2017-11-06T01:13:00.646Z,17.30
2017-11-06T01:15:28.167Z,16.83
2017-11-06T01:17:55.671Z,17.60
2017-11-06T01:20:23.960Z,14.83
2017-11-06T01:22:52.226Z,16.57
2017-11-06T01:25:20.495Z,16.47
2017-11-06T01:27:48.023Z,17.83
2017-11-06T01:30:16.292Z,16.40
2017-11-06T01:32:43.803Z,16.00
2017-11-06T01:35:12.066Z,17.17
2017-11-06T01:37:39.579Z,18.17
2017-11-06T01:40:07.072Z,17.40
2017-11-06T01:42:34.587Z,17.37
2017-11-06T01:45:02.087Z,16.73
2017-11-06T01:47:29.602Z,16.63
2017-11-06T01:49:57.104Z,17.33
2017-11-06T01:52:24.609Z,12.70
2017-11-06T01:54:52.127Z,14.30
2017-11-06T01:57:19.623Z,14.30
2017-11-06T01:59:47.139Z,14.83
2017-11-06T02:02:14.645Z,11.90
2017-11-06T02:04:42.165Z,10.63
2017-11-06T02:07:10.425Z,13.20
2017-11-06T02:09:37.948Z,14.27
2017-11-06T02:12:05.480Z,14.83
2017-11-06T02:14:33.760Z,13.60
2017-11-06T02:17:01.270Z,14.60
2017-11-06T02:19:28.832Z,14.80
2017-11-06T02:21:56.331Z,15.13
2017-11-06T02:24:23.825Z,16.27
2017-11-06T02:26:51.343Z,17.23
2017-11-06T02:29:19.608Z,15.37
2017-11-06T02:31:47.882Z,14.30
2017-11-06T02:34:16.147Z,15.90
2017-11-06T02:36:43.666Z,13.53
2017-11-06T02:39:11.168Z,14.97
2017-11-06T02:41:39.449Z,13.77
2017-11-06T02:44:07.710Z,14.63
2017-11-06T02:46:35.276Z,13.73
2017-11-06T02:49:03.549Z,14.70
2017-11-06T02:51:31.047Z,15.23
2017-11-06T02:53:58.560Z,14.73
2017-11-06T02:56:26.068Z,15.27
2017-11-06T02:58:53.587Z,15.83
2017-11-06T03:01:21.847Z,13.90
2017-11-06T03:03:49.363Z,15.00
2017-11-06T03:06:16.864Z,14.47
2017-11-06T03:08:44.384Z,15.53
2017-11-06T03:11:11.888Z,13.13
2017-11-06T03:13:39.407Z,14.70
2017-11-06T03:16:06.915Z,14.50
2017-11-06T03:18:35.183Z,15.30
2017-11-06T03:21:02.695Z,15.00
2017-11-06T03:23:30.200Z,16.40
2017-11-06T03:25:58.491Z,16.90
2017-11-06T03:28:26.759Z,16.57
2017-11-06T03:30:55.043Z,17.17
2017-11-06T03:33:23.307Z,17.33
2017-11-06T03:35:51.592Z,16.43
2017-11-06T03:38:19.867Z,16.67
2017-11-06T03:40:48.171Z,17.53
2017-11-06T03:43:15.675Z,16.37
2017-11-06T03:45:43.170Z,17.40
2017-11-06T03:48:10.691Z,16.20
2017-11-06T03:50:38.195Z,16.13
2017-11-06T03:53:05.719Z,15.90
2017-11-06T03:55:33.984Z,16.57
2017-11-06T03:58:01.495Z,16.37
2017-11-06T04:00:29.000Z,17.73
2017-11-06T04:02:56.527Z,16.07
2017-11-06T04:05:24.028Z,15.97
2017-11-06T04:07:52.366Z,16.63
2017-11-06T04:10:19.863Z,17.10
2017-11-06T04:12:47.363Z,17.17
2017-11-06T04:15:14.879Z,17.43
2017-11-06T04:17:43.171Z,17.93
2017-11-06T04:20:11.455Z,17.13
2017-11-06T04:22:38.964Z,16.90
2017-11-06T04:25:06.479Z,16.60
2017-11-06T04:27:33.979Z,16.33
2017-11-06T04:30:01.516Z,15.20
2017-11-06T04:32:29.014Z,14.83
2017-11-06T04:34:56.536Z,14.67
2017-11-06T04:37:24.047Z,14.10
2017-11-06T04:39:52.319Z,12.30
2017-11-06T04:42:20.594Z,12.67
2017-11-06T04:44:48.864Z,9.57
2017-11-06T04:47:17.147Z,9.70
2017-11-06T04:49:45.415Z,10.00
2017-11-06T04:52:13.698Z,9.13
2017-11-06T04:54:41.967Z,10.13
2017-11-06T04:57:09.507Z,8.67
2017-11-06T04:59:37.010Z,7.90
2017-11-06T05:02:04.503Z,8.03
2017-11-06T05:04:32.020Z,8.50
2017-11-06T05:07:00.287Z,8.77
2017-11-06T05:09:28.563Z,9.40
2017-11-06T05:11:56.828Z,8.93
2017-11-06T05:14:25.108Z,7.83
2017-11-06T05:16:53.372Z,7.40
2017-11-06T05:19:20.938Z,7.33
2017-11-06T05:21:49.203Z,7.57
2017-11-06T05:24:16.708Z,8.17
2017-11-06T05:26:44.219Z,8.33
2017-11-06T05:29:11.711Z,8.30
2017-11-06T05:31:39.223Z,8.80
2017-11-06T05:34:06.735Z,8.20
2017-11-06T05:36:34.251Z,8.27
2017-11-06T05:39:01.747Z,8.03
2017-11-06T05:41:29.323Z,7.60
2017-11-06T05:43:56.818Z,9.20
2017-11-06T05:46:24.324Z,7.07
2017-11-06T05:48:51.834Z,7.90
2017-11-06T05:51:19.343Z,8.30
2017-11-06T05:53:46.854Z,7.23
2017-11-06T05:56:14.347Z,7.30
2017-11-06T05:58:41.859Z,8.00
2017-11-06T06:01:09.759Z,7.97
2017-11-06T06:03:38.075Z,7.73
2017-11-06T06:06:05.595Z,8.30
2017-11-06T06:08:33.863Z,7.93
2017-11-06T06:11:02.142Z,8.70
2017-11-06T06:13:30.413Z,8.43
2017-11-06T06:15:58.695Z,8.47
2017-11-06T06:18:26.959Z,7.70
2017-11-06T06:20:54.466Z,7.40
2017-11-06T06:23:21.967Z,7.60
2017-11-06T06:25:49.520Z,7.73
2017-11-06T06:28:17.020Z,8.65
2017-11-06T06:30:44.520Z,8.00
2017-11-06T06:33:12.026Z,8.20
2017-11-06T06:35:40.282Z,7.07
2017-11-06T06:38:07.799Z,7.73
2017-11-06T06:40:35.309Z,8.10
2017-11-06T06:43:03.596Z,7.80
2017-11-06T06:45:31.866Z,7.83
2017-11-06T06:48:00.154Z,7.83
2017-11-06T06:50:27.668Z,8.43
2017-11-06T06:52:55.163Z,8.77
2017-11-06T06:55:23.451Z,8.93
2017-11-06T06:57:50.951Z,9.00
2017-11-06T07:00:18.475Z,8.30
2017-11-06T07:02:45.971Z,9.13
2017-11-06T07:05:13.484Z,7.23
2017-11-06T07:07:40.979Z,8.00
2017-11-06T07:10:08.496Z,8.40
2017-11-06T07:12:35.996Z,7.60
2017-11-06T07:15:03.495Z,7.60
2017-11-06T07:17:31.780Z,8.93
2017-11-06T07:20:00.047Z,10.80
2017-11-06T07:22:28.328Z,8.10
2017-11-06T07:24:56.591Z,9.60
2017-11-06T07:27:24.883Z,15.43
2017-11-06T07:29:53.143Z,9.33
2017-11-06T07:32:20.655Z,9.60
2017-11-06T07:34:48.161Z,9.00
2017-11-06T07:37:16.480Z,10.80
2017-11-06T07:39:43.985Z,12.00
2017-11-06T07:42:11.506Z,10.50
2017-11-06T07:44:39.019Z,9.67
2017-11-06T07:47:07.287Z,9.20
2017-11-06T07:49:35.568Z,8.80
2017-11-06T07:52:03.836Z,9.73
2017-11-06T07:54:31.351Z,11.87
2017-11-06T07:56:58.847Z,9.40
2017-11-06T07:59:26.403Z,11.20
2017-11-06T08:01:53.902Z,11.33
2017-11-06T08:04:21.404Z,9.83
2017-11-06T08:06:48.928Z,12.10
2017-11-06T08:09:16.435Z,37.33
2017-11-06T08:11:43.965Z,42.40
2017-11-06T08:14:11.463Z,15.80
2017-11-06T08:16:39.744Z,10.53
2017-11-06T08:19:08.417Z,27.67
2017-11-06T08:21:36.691Z,22.00
2017-11-06T08:24:04.217Z,19.00
2017-11-06T08:26:32.488Z,27.43
2017-11-06T08:29:00.012Z,24.20
2017-11-06T08:31:27.519Z,29.10
2017-11-06T08:33:55.044Z,13.10
2017-11-06T08:36:22.563Z,14.10
2017-11-06T08:38:50.835Z,12.90
2017-11-06T08:41:18.354Z,12.50
2017-11-06T08:43:45.860Z,14.17
2017-11-06T08:46:14.147Z,12.90
2017-11-06T08:48:42.415Z,13.30
2017-11-06T08:51:10.691Z,13.60
2017-11-06T08:53:38.992Z,14.10
2017-11-06T08:56:06.504Z,15.53
2017-11-06T08:58:34.027Z,15.47
2017-11-06T09:01:01.536Z,15.30
2017-11-06T09:03:29.839Z,15.47
2017-11-06T09:05:57.343Z,16.30
2017-11-06T09:08:24.868Z,17.00
2017-11-06T09:10:52.362Z,14.50
2017-11-06T09:13:19.899Z,13.03
2017-11-06T09:15:47.394Z,11.27
2017-11-06T09:18:14.887Z,9.80
2017-11-06T09:20:42.404Z,10.73
2017-11-06T09:23:09.894Z,9.50
2017-11-06T09:25:38.183Z,11.10
2017-11-06T09:28:05.685Z,9.43
2017-11-06T09:30:33.195Z,10.90
2017-11-06T09:33:00.700Z,8.60
2017-11-06T09:35:28.581Z,8.83
2017-11-06T09:37:56.079Z,9.60
2017-11-06T09:40:23.587Z,9.43
2017-11-06T09:42:51.109Z,10.17
2017-11-06T09:45:18.610Z,9.30
2017-11-06T09:47:46.128Z,10.10
2017-11-06T09:50:13.636Z,11.50
2017-11-06T09:52:41.150Z,9.10
2017-11-06T09:55:08.649Z,9.37
2017-11-06T09:57:36.163Z,9.73
2017-11-06T10:00:03.667Z,10.30
2017-11-06T10:02:31.163Z,9.50
2017-11-06T10:04:58.675Z,8.30
2017-11-06T10:07:26.178Z,9.70
2017-11-06T10:09:53.704Z,9.03
2017-11-06T10:12:21.976Z,10.43
2017-11-06T10:14:49.495Z,10.03
2017-11-06T10:17:16.986Z,7.37
2017-11-06T10:19:44.540Z,7.63
2017-11-06T10:22:12.035Z,7.33
2017-11-06T10:24:39.530Z,7.60
2017-11-06T10:27:07.047Z,9.90
2017-11-06T10:29:34.539Z,9.63
2017-11-06T10:32:02.055Z,8.17
2017-11-06T10:34:30.327Z,7.67
2017-11-06T10:36:58.615Z,8.73
2017-11-06T10:39:26.114Z,9.70
2017-11-06T10:41:53.641Z,11.63
2017-11-06T10:44:21.147Z,10.60
2017-11-06T10:46:49.419Z,10.40
2017-11-06T10:49:16.943Z,9.23
2017-11-06T10:51:44.455Z,8.80
2017-11-06T10:54:11.966Z,8.73
2017-11-06T10:56:39.467Z,8.70
2017-11-06T10:59:06.984Z,8.80
2017-11-06T11:01:34.491Z,9.47
2017-11-06T11:04:02.012Z,8.03
2017-11-06T11:06:29.516Z,9.60
2017-11-06T11:08:57.827Z,8.07
2017-11-06T11:11:25.331Z,8.17
2017-11-06T11:13:52.823Z,8.47
2017-11-06T11:16:20.339Z,7.93
2017-11-06T11:18:47.838Z,7.90
2017-11-06T11:21:15.363Z,8.10
2017-11-06T11:23:42.859Z,7.17
2017-11-06T11:26:10.380Z,8.23
2017-11-06T11:28:37.884Z,8.27
2017-11-06T11:31:05.408Z,18.20
2017-11-06T11:33:33.697Z,9.60
2017-11-06T11:36:01.970Z,8.60
2017-11-06T11:38:30.255Z,10.50
2017-11-06T11:40:58.528Z,13.50
2017-11-06T11:43:26.054Z,13.50
2017-11-06T11:45:53.559Z,11.20
2017-11-06T11:48:21.103Z,7.80
2017-11-06T11:50:49.375Z,10.10
2017-11-06T11:53:17.644Z,13.17
2017-11-06T11:55:45.927Z,11.33
2017-11-06T11:58:14.207Z,11.23
2017-11-06T12:00:41.736Z,14.03
2017-11-06T12:03:09.244Z,27.30
2017-11-06T12:05:36.764Z,8.80
2017-11-06T12:08:05.037Z,25.60
2017-11-06T12:10:33.352Z,13.90
2017-11-06T12:13:00.858Z,10.40
2017-11-06T12:15:28.358Z,16.97
2017-11-06T12:17:55.871Z,21.43
2017-11-06T12:20:23.373Z,24.00
2017-11-06T12:22:50.892Z,23.03
2017-11-06T12:25:18.399Z,15.43
2017-11-06T12:27:45.931Z,12.97
2017-11-06T12:30:14.195Z,13.20
2017-11-06T12:32:41.719Z,13.37
2017-11-06T12:35:09.225Z,10.57
2017-11-06T12:37:37.536Z,11.90
2017-11-06T12:40:05.292Z,12.13
2017-11-06T12:42:32.804Z,11.77
2017-11-06T12:45:00.331Z,13.17
2017-11-06T12:47:28.594Z,12.30
2017-11-06T12:49:56.120Z,18.50
2017-11-06T12:52:23.627Z,14.07
2017-11-06T12:54:51.147Z,15.70
2017-11-06T12:57:18.647Z,14.53
2017-11-06T12:59:46.191Z,15.37
2017-11-06T13:02:13.691Z,15.90
2017-11-06T13:04:41.192Z,16.77
2017-11-06T13:07:08.715Z,14.57
2017-11-06T13:09:37.000Z,15.10
2017-11-06T13:12:05.515Z,14.57
2017-11-06T13:14:33.049Z,16.13
2017-11-06T13:17:00.608Z,14.67
2017-11-06T13:19:28.127Z,14.60
2017-11-06T13:21:55.650Z,14.37
2017-11-06T13:24:23.168Z,15.83
2017-11-06T13:26:51.457Z,14.60
2017-11-06T13:29:19.719Z,14.60
2017-11-06T13:31:47.986Z,15.17
2017-11-06T13:34:15.507Z,16.63
2017-11-06T13:36:43.011Z,17.97
2017-11-06T13:39:11.293Z,16.33
2017-11-06T13:41:39.568Z,15.30
2017-11-06T13:44:07.858Z,17.30
2017-11-06T13:46:36.291Z,17.63
2017-11-06T13:49:03.816Z,17.40
2017-11-06T13:51:31.325Z,18.00
2017-11-06T13:53:58.876Z,18.43
2017-11-06T13:56:26.431Z,19.73
2017-11-06T13:58:53.934Z,18.73
2017-11-06T14:01:21.455Z,18.80
2017-11-06T14:03:48.956Z,20.30
2017-11-06T14:06:16.485Z,20.50
2017-11-06T14:08:44.756Z,19.87
2017-11-06T14:11:13.035Z,19.37
2017-11-06T14:13:41.302Z,21.57
2017-11-06T14:16:08.818Z,18.73
2017-11-06T14:18:36.320Z,20.10
2017-11-06T14:21:03.883Z,19.30
2017-11-06T14:23:32.160Z,16.97
2017-11-06T14:26:00.422Z,17.87
2017-11-06T14:28:27.935Z,18.23
2017-11-06T14:30:55.438Z,19.50
2017-11-06T14:33:22.952Z,18.60
2017-11-06T14:35:50.460Z,19.53
2017-11-06T14:38:17.975Z,18.93
2017-11-06T14:40:45.499Z,19.97
2017-11-06T14:43:13.805Z,16.60
2017-11-06T14:45:41.345Z,18.17
2017-11-06T14:48:10.198Z,18.53
2017-11-06T14:50:37.712Z,18.30
2017-11-06T14:53:05.215Z,17.97
2017-11-06T14:55:32.740Z,17.97
2017-11-06T14:58:00.243Z,16.97
2017-11-06T15:00:28.530Z,17.80
2017-11-06T15:02:56.800Z,15.93
2017-11-06T15:05:25.096Z,16.00
2017-11-06T15:07:52.600Z,15.17
2017-11-06T15:10:20.115Z,15.70
2017-11-06T15:12:47.627Z,16.90
2017-11-06T15:15:15.172Z,16.87
2017-11-06T15:17:42.667Z,16.30
2017-11-06T15:20:11.282Z,16.13
2017-11-06T15:22:38.807Z,15.80
2017-11-06T15:25:07.080Z,15.13
2017-11-06T15:27:35.362Z,14.27
2017-11-06T15:30:03.641Z,14.90
2017-11-06T15:32:31.927Z,17.03
2017-11-06T15:34:59.431Z,15.53
2017-11-06T15:37:26.956Z,15.07
2017-11-06T15:39:54.461Z,16.13
2017-11-06T15:42:22.004Z,16.27
2017-11-06T15:44:49.511Z,15.80
2017-11-06T15:47:17.783Z,15.70
2017-11-06T15:49:46.071Z,17.27
2017-11-06T15:52:13.579Z,15.60
2017-11-06T15:54:41.111Z,15.70
2017-11-06T15:57:08.614Z,16.07
2017-11-06T15:59:36.127Z,15.43
2017-11-06T16:02:03.623Z,15.40
2017-11-06T16:04:31.149Z,17.20
2017-11-06T16:06:58.651Z,17.20
2017-11-06T16:09:26.939Z,17.33
2017-11-06T16:11:55.212Z,18.70
2017-11-06T16:14:23.518Z,18.47
2017-11-06T16:16:51.024Z,16.70
2017-11-06T16:19:18.527Z,17.53
2017-11-06T16:21:46.047Z,16.53
2017-11-06T16:24:13.543Z,17.63
2017-11-06T16:26:41.072Z,18.93
2017-11-06T16:29:09.338Z,17.60
2017-11-06T16:31:36.858Z,18.33
2017-11-06T16:34:07.183Z,17.87
2017-11-06T16:36:34.699Z,19.00
2017-11-06T16:39:02.971Z,21.40
2017-11-06T16:41:31.271Z,20.60
2017-11-06T16:43:58.775Z,21.23
2017-11-06T16:46:26.280Z,20.40
2017-11-06T16:48:53.798Z,20.33
2017-11-06T16:51:21.295Z,22.10
2017-11-06T16:53:48.816Z,21.30
2017-11-06T16:56:16.326Z,23.27
2017-11-06T16:58:43.858Z,22.47
2017-11-06T17:01:11.371Z,22.33
2017-11-06T17:03:38.951Z,22.20
2017-11-06T17:06:06.461Z,22.13
2017-11-06T17:08:33.968Z,22.67
2017-11-06T17:11:01.496Z,23.20
2017-11-06T17:13:29.763Z,23.13
2017-11-06T17:15:57.283Z,25.10
2017-11-06T17:18:25.551Z,22.10
2017-11-06T17:20:53.840Z,20.20
2017-11-06T17:23:22.119Z,21.03
2017-11-06T17:25:50.405Z,21.90
2017-11-06T17:28:17.919Z,23.30
2017-11-06T17:30:45.467Z,22.80
2017-11-06T17:33:13.736Z,21.13
2017-11-06T17:35:41.238Z,20.37
2017-11-06T17:38:09.536Z,20.50
2017-11-06T17:40:37.038Z,21.00
2017-11-06T17:43:04.567Z,21.10
2017-11-06T17:45:32.080Z,20.43
2017-11-06T17:48:00.364Z,19.33
2017-11-06T17:50:28.638Z,21.03
2017-11-06T17:52:56.924Z,23.87
2017-11-06T17:55:24.433Z,21.23
2017-11-06T17:57:52.744Z,20.53
2017-11-06T18:00:21.007Z,20.50
2017-11-06T18:02:48.506Z,18.87
2017-11-06T18:05:16.027Z,18.40
2017-11-06T18:07:44.378Z,18.43
2017-11-06T18:10:11.913Z,18.37
2017-11-06T18:12:39.423Z,18.03
2017-11-06T18:15:06.948Z,17.70
2017-11-06T18:17:34.455Z,18.53
2017-11-06T18:20:02.743Z,19.30
2017-11-06T18:22:30.252Z,19.80
2017-11-06T18:24:58.185Z,19.80
2017-11-06T18:27:25.687Z,19.23
2017-11-06T18:29:53.193Z,21.00
2017-11-06T18:32:20.729Z,19.30
2017-11-06T18:34:49.000Z,20.70
2017-11-06T18:37:17.283Z,18.80
2017-11-06T18:39:45.550Z,19.53
2017-11-06T18:42:13.835Z,19.60
2017-11-06T18:44:42.112Z,18.77
2017-11-06T18:47:10.400Z,20.00
2017-11-06T18:49:37.907Z,20.90
2017-11-06T18:52:05.473Z,20.90
2017-11-06T18:54:32.979Z,21.50
2017-11-06T18:57:00.486Z,20.20
2017-11-06T18:59:28.008Z,22.93
2017-11-06T19:01:55.516Z,22.00
2017-11-06T19:04:23.043Z,21.10
2017-11-06T19:06:50.547Z,22.60
2017-11-06T19:09:18.831Z,19.90
2017-11-06T19:11:47.091Z,20.60
2017-11-06T19:14:15.383Z,20.53
2017-11-06T19:16:43.647Z,20.17
2017-11-06T19:19:11.956Z,21.90
2017-11-06T19:21:39.459Z,20.87
2017-11-06T19:24:06.958Z,21.00
2017-11-06T19:26:34.480Z,20.30
2017-11-06T19:29:01.974Z,21.03
2017-11-06T19:31:29.499Z,19.43
2017-11-06T19:33:57.000Z,19.10
2017-11-06T19:36:24.520Z,18.93
2017-11-06T19:38:52.016Z,17.77
2017-11-06T19:41:19.559Z,17.70
2017-11-06T19:43:47.837Z,19.27
2017-11-06T19:46:16.099Z,17.13
2017-11-06T19:48:43.949Z,17.80
2017-11-06T19:51:11.448Z,21.37
2017-11-06T19:53:38.967Z,18.70
2017-11-06T19:56:06.476Z,18.07
2017-11-06T19:58:33.995Z,18.50
2017-11-06T20:01:02.264Z,19.57
2017-11-06T20:03:30.556Z,20.30
2017-11-06T20:05:58.823Z,20.40
2017-11-06T20:08:27.135Z,20.00
2017-11-06T20:10:54.642Z,20.60
2017-11-06T20:13:22.199Z,18.93
2017-11-06T20:15:49.715Z,16.60
2017-11-06T20:18:17.261Z,17.00
2017-11-06T20:20:44.807Z,16.20
2017-11-06T20:23:12.307Z,15.63
2017-11-06T20:25:39.832Z,17.00
2017-11-06T20:28:07.336Z,18.73
2017-11-06T20:30:34.851Z,17.47
2017-11-06T20:33:02.356Z,16.73
2017-11-06T20:35:29.912Z,14.30
2017-11-06T20:37:57.419Z,13.90
2017-11-06T20:40:24.914Z,10.87
2017-11-06T20:42:52.430Z,11.37
2017-11-06T20:45:20.694Z,11.23
2017-11-06T20:47:48.980Z,10.27
2017-11-06T20:50:17.242Z,11.63
2017-11-06T20:52:45.522Z,10.10
2017-11-06T20:55:13.804Z,11.27
2017-11-06T20:57:42.107Z,9.77
2017-11-06T21:00:09.598Z,10.10
2017-11-06T21:02:37.109Z,10.57
2017-11-06T21:05:04.629Z,10.17
2017-11-06T21:07:32.131Z,10.40
2017-11-06T21:09:59.663Z,10.43
2017-11-06T21:12:27.936Z,11.87
2017-11-06T21:14:56.224Z,11.23
2017-11-06T21:17:24.491Z,10.80
2017-11-06T21:19:52.767Z,10.53
2017-11-06T21:22:21.040Z,10.80
2017-11-06T21:24:49.352Z,10.63
2017-11-06T21:27:16.851Z,10.77
2017-11-06T21:29:49.971Z,9.90
2017-11-06T21:32:18.247Z,10.00
2017-11-06T21:34:46.507Z,9.90
2017-11-06T21:37:14.022Z,10.90
2017-11-06T21:39:41.519Z,11.17
2017-11-06T21:42:09.040Z,11.77
2017-11-06T21:44:36.544Z,11.23
2017-11-06T21:47:04.827Z,10.47
2017-11-06T21:49:33.090Z,11.37
2017-11-06T21:52:00.612Z,11.70
2017-11-06T21:54:28.128Z,11.67
2017-11-06T21:56:56.390Z,11.10
2017-11-06T21:59:24.680Z,13.10
2017-11-06T22:01:52.947Z,11.73
2017-11-06T22:04:21.226Z,11.17
2017-11-06T22:06:49.492Z,12.90
2017-11-06T22:09:17.779Z,12.37
2017-11-06T22:11:46.048Z,11.00
2017-11-06T22:14:14.349Z,11.50
2017-11-06T22:16:41.863Z,11.90
2017-11-06T22:19:09.362Z,13.07
2017-11-06T22:21:36.917Z,12.57
2017-11-06T22:24:04.426Z,11.20
2017-11-06T22:26:31.935Z,11.80
2017-11-06T22:28:59.436Z,11.70
2017-11-06T22:31:26.974Z,12.10
2017-11-06T22:33:54.476Z,10.40
2017-11-06T22:36:21.975Z,11.50
2017-11-06T22:38:49.487Z,11.70
2017-11-06T22:41:16.992Z,12.60
2017-11-06T22:43:44.519Z,11.27
2017-11-06T22:46:12.788Z,12.20
2017-11-06T22:48:40.303Z,11.20
2017-11-06T22:51:07.804Z,11.80
2017-11-06T22:53:35.346Z,11.23
2017-11-06T22:56:02.846Z,12.47
2017-11-06T22:58:30.350Z,12.23
2017-11-06T23:00:57.872Z,12.17
2017-11-06T23:03:25.386Z,11.90
2017-11-06T23:05:52.903Z,12.63
2017-11-06T23:08:20.404Z,13.10
2017-11-06T23:10:47.928Z,13.70
2017-11-06T23:13:15.422Z,12.80
2017-11-06T23:15:42.971Z,11.73
2017-11-06T23:18:10.474Z,13.33
2017-11-06T23:20:37.980Z,12.60
2017-11-06T23:23:05.508Z,14.07
2017-11-06T23:25:33.007Z,13.33
2017-11-06T23:28:00.536Z,14.27
2017-11-06T23:30:28.041Z,12.63
2017-11-06T23:32:56.329Z,12.37
2017-11-06T23:35:24.594Z,14.70
2017-11-06T23:37:52.892Z,14.70
2017-11-06T23:40:20.386Z,12.30
2017-11-06T23:42:47.912Z,13.40
2017-11-06T23:45:15.433Z,13.10
2017-11-06T23:47:42.953Z,13.77
2017-11-06T23:50:10.455Z,14.50
2017-11-06T23:52:37.975Z,13.73
2017-11-06T23:55:05.471Z,13.43
2017-11-06T23:57:32.992Z,14.00
